Terminal Aerodrome Forecast
Issued by NWS Lake Charles, LA

Home | Current Version | Previous Version | Text Only | Print | Product List | Glossary On
Versions: 1 2 3 4 5 6 7 8 9 10 11 12 13 14 15 16 17 18 19
048
FTUS44 KLCH 241407 AAA
TAFLCH
TAF AMD
KLCH 241407Z 2414/2512 15010KT P6SM SCT025 BKN050
      TEMPO 2414/2418 BKN025 OVC050
     FM250100 15007KT P6SM FEW250
     FM250600 15006KT P6SM SCT015=

USA.gov is the U.S. government's official web portal to all federal, state and local government web resources and services.